Terminal Aerodrome Forecast
Issued by NWS

Home | Current Version | Previous Version | Text Only | Print | Product List | Glossary On
Versions: 1 2 3 4 5 6 7 8 9 10 11
000
FTUS43 KAPX 041726
TAFTVC
TAF
KTVC 041726Z 0418/0518 01007KT P6SM SCT050
     FM050100 VRB03KT P6SM SCT250
     FM050800 00000KT 5SM BR SCT250
     FM051300 21006KT P6SM SCT250=

USA.gov is the U.S. government's official web portal to all federal, state and local government web resources and services.